Time;durP1;ratioP1;P1;durP2;ratioP2;P2;SDS_P1;SDS_P2;PMS_P1;PMS_P2;Temp;Humidity;BMP_temperature;BMP_pressure;BME280_temperature;BME280_humidity;BME280_pressure;Samples;Min_cycle;Max_cycle;Signal;HPM_P1;HPM_P2
2022/08/15 00:00:40;;;;;;;4.25;3.88;;;;;;;;;;5065117;28;20221;-85
2022/08/15 00:03:20;;;;;;;3.63;3.33;;;;;;;;;;5064906;28;20205;-84
2022/08/15 00:05:48;;;;;;;3.90;3.60;;;;;;;;;;5066003;28;20634;-84
2022/08/15 00:08:17;;;;;;;3.95;3.65;;;;;;;;;;5066512;28;20214;-84
2022/08/15 00:10:46;;;;;;;3.35;3.15;;;;;;;;;;5073610;28;20452;-84
2022/08/15 00:13:19;;;;;;;7.35;4.25;;;;;;;;;;5075791;28;20212;-85
2022/08/15 00:15:51;;;;;;;3.92;3.63;;;;;;;;;;5076237;28;20213;-84
2022/08/15 00:18:20;;;;;;;3.40;3.20;;;;;;;;;;5076171;28;20265;-84
2022/08/15 00:20:48;;;;;;;4.00;3.70;;;;;;;;;;5074872;28;20661;-84
2022/08/15 00:23:18;;;;;;;4.40;4.10;;;;;;;;;;5068139;28;20247;-85
2022/08/15 00:25:48;;;;;;;3.30;3.10;;;;;;;;;;5065786;28;20241;-85
2022/08/15 00:28:16;;;;;;;3.13;2.92;;;;;;;;;;5067386;28;20228;-85
2022/08/15 00:30:47;;;;;;;3.65;3.45;;;;;;;;;;5065026;28;20225;-85
2022/08/15 00:33:17;;;;;;;3.78;3.58;;;;;;;;;;5068407;28;20229;-84
2022/08/15 00:35:47;;;;;;;4.40;4.10;;;;;;;;;;5067883;28;20300;-85
2022/08/15 00:38:19;;;;;;;4.75;4.35;;;;;;;;;;5067167;28;20240;-85
2022/08/15 00:43:35;;;;;;;4.50;4.18;;;;;;;;;;5067244;28;20287;-85
2022/08/15 00:46:07;;;;;;;4.13;3.83;;;;;;;;;;5067823;28;20210;-85
2022/08/15 00:48:44;;;;;;;4.10;3.80;;;;;;;;;;5068033;28;20213;-85
2022/08/15 00:51:17;;;;;;;4.40;4.00;;;;;;;;;;5066213;28;20280;-85
2022/08/15 00:53:50;;;;;;;4.18;3.88;;;;;;;;;;5065008;28;20205;-85
2022/08/15 00:56:18;;;;;;;4.70;4.18;;;;;;;;;;5065779;28;20259;-84
2022/08/15 00:58:47;;;;;;;4.30;4.00;;;;;;;;;;5066242;28;20225;-85
2022/08/15 01:01:16;;;;;;;5.65;4.03;;;;;;;;;;5066823;28;20221;-85
2022/08/15 01:03:47;;;;;;;4.57;4.18;;;;;;;;;;5064168;28;20220;-84
2022/08/15 01:06:17;;;;;;;4.03;3.72;;;;;;;;;;5066591;28;20285;-84
2022/08/15 01:08:46;;;;;;;4.55;4.25;;;;;;;;;;5066403;28;20208;-85
2022/08/15 01:11:19;;;;;;;3.67;3.38;;;;;;;;;;5065465;28;20618;-84
2022/08/15 01:13:49;;;;;;;4.43;4.10;;;;;;;;;;5063767;28;20197;-85
2022/08/15 01:16:18;;;;;;;3.78;3.40;;;;;;;;;;5065016;28;20225;-85
2022/08/15 01:18:46;;;;;;;4.03;3.67;;;;;;;;;;5065502;28;20198;-83
2022/08/15 01:21:21;;;;;;;3.97;3.67;;;;;;;;;;5065556;28;20190;-84
2022/08/15 01:24:01;;;;;;;4.18;3.85;;;;;;;;;;5066043;28;20224;-84
2022/08/15 01:26:30;;;;;;;3.97;3.67;;;;;;;;;;5065558;28;20237;-84
2022/08/15 01:28:58;;;;;;;4.60;4.30;;;;;;;;;;5064241;28;20690;-84
2022/08/15 01:31:26;;;;;;;3.40;3.20;;;;;;;;;;5065567;28;20221;-84
2022/08/15 01:33:56;;;;;;;3.72;3.42;;;;;;;;;;5063788;28;20233;-84
2022/08/15 01:36:26;;;;;;;3.80;3.50;;;;;;;;;;5063346;28;20217;-84
2022/08/15 01:39:03;;;;;;;3.53;3.22;;;;;;;;;;5063420;28;20212;-84
2022/08/15 01:41:37;;;;;;;3.33;3.13;;;;;;;;;;5062091;28;20208;-84
2022/08/15 01:44:17;;;;;;;3.65;3.30;;;;;;;;;;5063710;28;20202;-84
2022/08/15 01:46:50;;;;;;;3.20;3.00;;;;;;;;;;5063331;28;20221;-84
2022/08/15 01:49:24;;;;;;;3.28;3.08;;;;;;;;;;5063260;28;20224;-84
2022/08/15 01:51:54;;;;;;;3.45;3.25;;;;;;;;;;5061368;28;20288;-84
2022/08/15 01:54:23;;;;;;;3.25;3.05;;;;;;;;;;5058567;28;20303;-84
2022/08/15 01:56:51;;;;;;;3.30;3.10;;;;;;;;;;5059197;28;20253;-84
2022/08/15 01:59:22;;;;;;;3.40;3.20;;;;;;;;;;5059042;28;20261;-84
2022/08/15 02:01:52;;;;;;;3.40;3.20;;;;;;;;;;5059498;28;20225;-84
2022/08/15 02:04:25;;;;;;;3.63;3.33;;;;;;;;;;5066029;28;20232;-84
2022/08/15 02:06:53;;;;;;;3.80;3.42;;;;;;;;;;5062851;28;20279;-84
2022/08/15 02:09:21;;;;;;;3.90;3.53;;;;;;;;;;5063319;28;20194;-85
2022/08/15 02:11:55;;;;;;;3.95;3.65;;;;;;;;;;5061973;28;20256;-85
2022/08/15 02:14:23;;;;;;;3.92;3.63;;;;;;;;;;5063293;28;20693;-84
2022/08/15 02:16:51;;;;;;;3.75;3.40;;;;;;;;;;5062690;28;20363;-84
2022/08/15 02:19:18;;;;;;;3.72;3.50;;;;;;;;;;5062922;28;20241;-84
2022/08/15 02:21:48;;;;;;;3.88;3.58;;;;;;;;;;5061870;28;20293;-84
2022/08/15 02:24:20;;;;;;;3.67;3.47;;;;;;;;;;5061828;28;20304;-84
2022/08/15 02:26:48;;;;;;;3.97;3.67;;;;;;;;;;5061653;28;20221;-84
2022/08/15 02:29:17;;;;;;;4.05;3.75;;;;;;;;;;5061477;28;20237;-84
2022/08/15 02:31:45;;;;;;;3.13;2.92;;;;;;;;;;5061544;28;20248;-84
2022/08/15 02:34:13;;;;;;;3.45;3.25;;;;;;;;;;5062098;28;20728;-84
2022/08/15 02:36:41;;;;;;;3.30;3.00;;;;;;;;;;5060542;28;20910;-84
2022/08/15 02:39:11;;;;;;;3.55;3.35;;;;;;;;;;5059266;28;20232;-84
2022/08/15 02:41:45;;;;;;;4.07;3.67;;;;;;;;;;5058931;28;20198;-84
2022/08/15 02:44:13;;;;;;;3.47;3.20;;;;;;;;;;5059203;28;20236;-84
2022/08/15 02:46:41;;;;;;;3.33;3.13;;;;;;;;;;5057868;28;20289;-83
2022/08/15 02:49:11;;;;;;;3.25;3.05;;;;;;;;;;5058841;28;20248;-84
2022/08/15 02:51:39;;;;;;;3.10;2.90;;;;;;;;;;5059236;28;20204;-84
2022/08/15 02:54:09;;;;;;;4.15;3.13;;;;;;;;;;5058637;28;20212;-83
2022/08/15 02:56:37;;;;;;;3.58;3.38;;;;;;;;;;5058426;28;20221;-84
2022/08/15 02:59:07;;;;;;;3.47;3.28;;;;;;;;;;5058818;28;20261;-84
2022/08/15 03:01:38;;;;;;;4.57;4.18;;;;;;;;;;5059121;28;20201;-84
2022/08/15 03:04:11;;;;;;;3.80;3.55;;;;;;;;;;5057586;28;20201;-83
2022/08/15 03:06:39;;;;;;;3.35;3.15;;;;;;;;;;5056307;28;20312;-84
2022/08/15 03:09:09;;;;;;;3.50;3.20;;;;;;;;;;5055754;28;20297;-84
2022/08/15 03:11:39;;;;;;;3.78;3.47;;;;;;;;;;5057289;28;20248;-84
2022/08/15 03:14:07;;;;;;;3.40;3.20;;;;;;;;;;5056706;28;20721;-84
2022/08/15 03:16:36;;;;;;;3.45;3.25;;;;;;;;;;5070093;22;20244;-84
2022/08/15 03:19:04;;;;;;;4.00;3.70;;;;;;;;;;5065560;28;20236;-84
2022/08/15 03:21:35;;;;;;;3.72;3.42;;;;;;;;;;5075921;28;20636;-84
2022/08/15 03:24:03;;;;;;;3.70;3.40;;;;;;;;;;5076037;28;20216;-84
2022/08/15 03:26:32;;;;;;;3.67;3.38;;;;;;;;;;5078447;28;20221;-82
2022/08/15 03:29:00;;;;;;;3.30;3.00;;;;;;;;;;5079068;28;20200;-84
2022/08/15 03:31:27;;;;;;;3.95;3.65;;;;;;;;;;5079918;28;20283;-84
2022/08/15 03:33:55;;;;;;;3.28;3.08;;;;;;;;;;5080095;28;20227;-83
2022/08/15 03:36:25;;;;;;;3.80;3.50;;;;;;;;;;5079767;28;20665;-80
2022/08/15 03:38:54;;;;;;;3.63;3.33;;;;;;;;;;5080024;28;20303;-84
2022/08/15 03:41:22;;;;;;;3.90;3.60;;;;;;;;;;5079880;28;20193;-83
2022/08/15 03:43:49;;;;;;;3.67;3.47;;;;;;;;;;5080370;28;20260;-82
2022/08/15 03:46:21;;;;;;;3.85;3.58;;;;;;;;;;5079350;28;20260;-81
2022/08/15 03:48:53;;;;;;;4.00;3.70;;;;;;;;;;5079938;28;20525;-82
2022/08/15 03:51:23;;;;;;;3.75;3.45;;;;;;;;;;5079183;28;20189;-82
2022/08/15 03:53:58;;;;;;;3.67;3.38;;;;;;;;;;5079930;28;20220;-80
2022/08/15 03:56:29;;;;;;;4.03;3.72;;;;;;;;;;5079356;28;20188;-81
2022/08/15 03:58:58;;;;;;;3.30;3.10;;;;;;;;;;5079373;28;20302;-83
2022/08/15 04:01:28;;;;;;;3.13;2.90;;;;;;;;;;5079743;28;20208;-80
2022/08/15 04:03:56;;;;;;;3.38;3.17;;;;;;;;;;5079336;28;20213;-82
2022/08/15 04:06:26;;;;;;;3.42;3.13;;;;;;;;;;5078839;28;20252;-83
2022/08/15 04:08:56;;;;;;;3.53;3.30;;;;;;;;;;5079697;28;20224;-80
2022/08/15 04:11:25;;;;;;;3.22;3.03;;;;;;;;;;5077788;28;20195;-83
2022/08/15 04:13:53;;;;;;;3.10;2.90;;;;;;;;;;5078625;28;20627;-83
2022/08/15 04:16:21;;;;;;;3.90;3.45;;;;;;;;;;5077982;28;20204;-82
2022/08/15 04:18:49;;;;;;;3.53;3.22;;;;;;;;;;5078108;28;20205;-82
2022/08/15 04:21:16;;;;;;;3.63;3.25;;;;;;;;;;5077868;28;20254;-83
2022/08/15 04:23:47;;;;;;;4.18;3.88;;;;;;;;;;5078617;28;20248;-81
2022/08/15 04:26:18;;;;;;;4.22;3.85;;;;;;;;;;5077579;28;20259;-81
2022/08/15 04:28:46;;;;;;;2.72;2.53;;;;;;;;;;5078565;28;20244;-83
2022/08/15 04:31:16;;;;;;;3.67;3.38;;;;;;;;;;5077974;28;20545;-83
2022/08/15 04:33:45;;;;;;;3.53;3.33;;;;;;;;;;5078042;28;20227;-83
2022/08/15 04:36:16;;;;;;;3.10;2.90;;;;;;;;;;5078088;28;20250;-81
2022/08/15 04:38:45;;;;;;;3.80;3.53;;;;;;;;;;5077446;28;20228;-82
2022/08/15 04:41:15;;;;;;;2.97;2.78;;;;;;;;;;5078489;28;20201;-82
2022/08/15 04:43:44;;;;;;;3.30;3.10;;;;;;;;;;5077728;28;20699;-80
2022/08/15 04:46:13;;;;;;;3.05;2.85;;;;;;;;;;5078077;28;20229;-81
2022/08/15 04:48:41;;;;;;;3.33;3.13;;;;;;;;;;5077578;28;20231;-80
2022/08/15 04:51:08;;;;;;;3.00;2.78;;;;;;;;;;5077941;28;20240;-83
2022/08/15 04:53:39;;;;;;;3.30;3.10;;;;;;;;;;5077440;28;20248;-82
2022/08/15 04:56:08;;;;;;;2.65;2.45;;;;;;;;;;5077587;28;20657;-80
2022/08/15 04:58:37;;;;;;;2.75;2.55;;;;;;;;;;5077841;28;20571;-83
2022/08/15 05:01:08;;;;;;;3.25;3.00;;;;;;;;;;5078134;28;20307;-82
2022/08/15 05:03:37;;;;;;;3.10;2.80;;;;;;;;;;5077788;28;20689;-82
2022/08/15 05:06:08;;;;;;;4.95;3.60;;;;;;;;;;5076918;28;20205;-80
2022/08/15 05:08:38;;;;;;;2.75;2.55;;;;;;;;;;5077306;28;20224;-82
2022/08/15 05:11:10;;;;;;;2.85;2.65;;;;;;;;;;5077633;28;20181;-82
2022/08/15 05:13:41;;;;;;;2.60;2.40;;;;;;;;;;5077034;28;20237;-80
2022/08/15 05:16:09;;;;;;;2.83;2.63;;;;;;;;;;5077508;28;20251;-82
2022/08/15 05:18:39;;;;;;;2.30;2.20;;;;;;;;;;5064589;28;20284;-83
2022/08/15 05:21:07;;;;;;;2.50;2.40;;;;;;;;;;5056947;28;20273;-83
2022/08/15 05:23:35;;;;;;;3.05;2.60;;;;;;;;;;5056521;28;20257;-81
2022/08/15 05:26:05;;;;;;;2.60;2.40;;;;;;;;;;5056434;28;20197;-83
2022/08/15 05:28:33;;;;;;;2.70;2.42;;;;;;;;;;5056951;28;20206;-83
2022/08/15 05:31:06;;;;;;;2.83;2.63;;;;;;;;;;5057486;28;20645;-83
2022/08/15 05:33:34;;;;;;;3.30;3.10;;;;;;;;;;5056932;28;20322;-81
2022/08/15 05:36:05;;;;;;;3.45;3.15;;;;;;;;;;5056875;28;20232;-80
2022/08/15 05:38:38;;;;;;;3.30;3.10;;;;;;;;;;5057365;28;20205;-83
2022/08/15 05:41:23;;;;;;;3.80;3.50;;;;;;;;;;5057223;28;20237;-83
2022/08/15 05:43:58;;;;;;;4.88;4.40;;;;;;;;;;5056701;28;20253;-82
2022/08/15 05:46:44;;;;;;;5.18;4.78;;;;;;;;;;5056855;28;20190;-83
2022/08/15 05:49:29;;;;;;;4.00;3.70;;;;;;;;;;5056011;28;20244;-83
2022/08/15 05:52:15;;;;;;;4.38;4.07;;;;;;;;;;5057317;28;20189;-83
2022/08/15 05:54:58;;;;;;;4.38;4.07;;;;;;;;;;5057001;28;20630;-82
2022/08/15 05:57:31;;;;;;;3.67;3.38;;;;;;;;;;5056783;28;20221;-82
2022/08/15 06:00:02;;;;;;;4.80;4.50;;;;;;;;;;5055930;28;20210;-82
2022/08/15 06:02:34;;;;;;;3.90;3.60;;;;;;;;;;5056996;28;20247;-82
2022/08/15 06:05:08;;;;;;;4.57;4.28;;;;;;;;;;5056342;28;20263;-82
2022/08/15 06:07:36;;;;;;;5.20;4.80;;;;;;;;;;5056234;28;20214;-82
2022/08/15 06:10:09;;;;;;;5.80;5.35;;;;;;;;;;5055515;28;20202;-82
2022/08/15 06:12:42;;;;;;;5.82;5.18;;;;;;;;;;5055925;28;20253;-81
2022/08/15 06:15:16;;;;;;;5.55;5.15;;;;;;;;;;5056146;28;20220;-80
2022/08/15 06:17:49;;;;;;;5.82;5.32;;;;;;;;;;5056898;28;20208;-82
2022/08/15 06:20:21;;;;;;;6.80;5.28;;;;;;;;;;5056338;28;20197;-78
2022/08/15 06:22:56;;;;;;;5.70;5.28;;;;;;;;;;5055603;28;20222;-80
2022/08/15 06:25:30;;;;;;;5.82;5.28;;;;;;;;;;5056094;28;20212;-81
2022/08/15 06:28:14;;;;;;;5.65;5.15;;;;;;;;;;5056513;28;20273;-82
2022/08/15 06:30:48;;;;;;;6.38;5.78;;;;;;;;;;5056092;28;20201;-82
2022/08/15 06:33:29;;;;;;;5.70;5.20;;;;;;;;;;5056431;28;20220;-81
2022/08/15 06:36:04;;;;;;;5.03;4.63;;;;;;;;;;5056620;28;20200;-83
2022/08/15 06:38:42;;;;;;;6.32;5.72;;;;;;;;;;5056124;28;20185;-80
2022/08/15 06:41:21;;;;;;;5.72;5.22;;;;;;;;;;5056807;28;20197;-82
2022/08/15 06:43:49;;;;;;;5.40;5.00;;;;;;;;;;5055195;28;20256;-80
2022/08/15 06:46:17;;;;;;;5.32;4.80;;;;;;;;;;5055655;28;20217;-80
2022/08/15 06:48:46;;;;;;;5.47;5.07;;;;;;;;;;5056352;28;20276;-80
2022/08/15 06:51:15;;;;;;;5.40;5.00;;;;;;;;;;5056326;28;20251;-81
2022/08/15 06:53:49;;;;;;;6.00;5.50;;;;;;;;;;5054675;28;20678;-83
2022/08/15 06:56:24;;;;;;;5.60;5.18;;;;;;;;;;5055380;28;20177;-83
2022/08/15 06:59:00;;;;;;;5.35;4.85;;;;;;;;;;5055024;28;20177;-81
2022/08/15 07:01:42;;;;;;;5.47;4.97;;;;;;;;;;5055109;28;20213;-82
2022/08/15 07:04:20;;;;;;;5.65;5.10;;;;;;;;;;5056210;28;20304;-84
2022/08/15 07:06:55;;;;;;;5.45;5.05;;;;;;;;;;5057116;28;20622;-83
2022/08/15 07:09:36;;;;;;;5.32;4.93;;;;;;;;;;5056335;28;20655;-83
2022/08/15 07:12:21;;;;;;;4.90;4.50;;;;;;;;;;5055463;28;20221;-80
2022/08/15 07:14:57;;;;;;;4.63;4.22;;;;;;;;;;5056477;28;20210;-82
2022/08/15 07:17:30;;;;;;;4.70;4.40;;;;;;;;;;5056136;28;20273;-85
2022/08/15 07:19:59;;;;;;;4.95;4.60;;;;;;;;;;5056794;28;20210;-82
2022/08/15 07:22:27;;;;;;;5.43;5.03;;;;;;;;;;5056235;28;20599;-83
2022/08/15 07:24:56;;;;;;;4.68;4.38;;;;;;;;;;5056853;28;20212;-82
2022/08/15 07:27:30;;;;;;;5.05;4.75;;;;;;;;;;5055972;28;20201;-82
2022/08/15 07:30:00;;;;;;;4.57;4.28;;;;;;;;;;5055269;28;20190;-84
2022/08/15 07:32:44;;;;;;;4.90;4.45;;;;;;;;;;5055589;28;20222;-84
2022/08/15 07:35:24;;;;;;;4.75;4.45;;;;;;;;;;5055622;28;20660;-81
2022/08/15 07:37:56;;;;;;;3.97;3.67;;;;;;;;;;5056184;28;20289;-85
2022/08/15 07:40:29;;;;;;;4.78;4.47;;;;;;;;;;5056519;28;20205;-83
2022/08/15 07:42:58;;;;;;;5.57;3.83;;;;;;;;;;5056519;28;20256;-83
2022/08/15 07:45:32;;;;;;;4.72;4.43;;;;;;;;;;5055669;28;20252;-82
2022/08/15 07:48:04;;;;;;;4.15;3.85;;;;;;;;;;5056404;28;20614;-83
2022/08/15 07:50:38;;;;;;;3.83;3.53;;;;;;;;;;5055102;28;20190;-84
2022/08/15 07:53:16;;;;;;;3.65;3.45;;;;;;;;;;5055349;28;20313;-82
2022/08/15 07:55:48;;;;;;;3.90;3.63;;;;;;;;;;5054732;28;20209;-81
2022/08/15 07:58:19;;;;;;;4.72;4.32;;;;;;;;;;5055285;28;20182;-82
2022/08/15 08:00:55;;;;;;;5.43;4.93;;;;;;;;;;5055101;28;20183;-80
2022/08/15 08:03:27;;;;;;;4.88;4.47;;;;;;;;;;5054829;28;20630;-82
2022/08/15 08:06:09;;;;;;;4.55;4.15;;;;;;;;;;5055534;28;20215;-80
2022/08/15 08:08:42;;;;;;;3.88;3.58;;;;;;;;;;5055564;28;20210;-84
2022/08/15 08:11:15;;;;;;;4.07;3.78;;;;;;;;;;5055743;28;20549;-82
2022/08/15 08:13:48;;;;;;;4.22;3.92;;;;;;;;;;5058806;28;20222;-84
2022/08/15 08:16:38;;;;;;;3.63;3.40;;;;;;;;;;5059419;28;20209;-82
2022/08/15 08:19:13;;;;;;;3.53;3.30;;;;;;;;;;5058544;28;20194;-82
2022/08/15 08:21:48;;;;;;;4.55;4.25;;;;;;;;;;5058254;28;20237;-83
2022/08/15 08:24:26;;;;;;;4.63;4.30;;;;;;;;;;5057634;28;20221;-79
2022/08/15 08:27:00;;;;;;;4.63;3.90;;;;;;;;;;5057739;28;20288;-81
2022/08/15 08:29:35;;;;;;;4.22;3.92;;;;;;;;;;5057405;28;20263;-81
2022/08/15 08:32:10;;;;;;;4.60;4.28;;;;;;;;;;5058195;28;20617;-79
2022/08/15 08:34:47;;;;;;;4.45;4.05;;;;;;;;;;5058151;28;20210;-80
2022/08/15 08:37:24;;;;;;;5.15;4.75;;;;;;;;;;5057274;28;20541;-80
2022/08/15 08:41:24;;;;;;;5.07;4.68;;;;;;;;;;5057108;28;20221;-81
2022/08/15 08:42:51;;;;;;;4.22;3.92;;;;;;;;;;5057130;28;20221;-79
2022/08/15 08:45:25;;;;;;;5.03;4.63;;;;;;;;;;5057677;28;20186;-79
2022/08/15 08:48:15;;;;;;;4.72;4.43;;;;;;;;;;5044511;28;20201;-81
2022/08/15 08:50:55;;;;;;;7.82;5.28;;;;;;;;;;5037891;28;20615;-81
2022/08/15 08:53:30;;;;;;;5.32;4.82;;;;;;;;;;5037627;28;20724;-79
2022/08/15 08:56:04;;;;;;;5.65;5.15;;;;;;;;;;5037979;28;20228;-81
2022/08/15 08:58:37;;;;;;;5.18;4.78;;;;;;;;;;5037026;28;20206;-81
2022/08/15 09:01:07;;;;;;;5.63;4.65;;;;;;;;;;5037146;28;20606;-79
2022/08/15 09:03:40;;;;;;;6.13;5.63;;;;;;;;;;5060810;23;20321;-76
2022/08/15 09:06:11;;;;;;;5.88;5.38;;;;;;;;;;5053587;28;20226;-77
2022/08/15 09:08:43;;;;;;;5.28;4.88;;;;;;;;;;5053209;28;20198;-76
2022/08/15 09:11:18;;;;;;;5.22;4.82;;;;;;;;;;5053732;28;20288;-76
2022/08/15 09:13:46;;;;;;;3.58;3.33;;;;;;;;;;5053447;28;20291;-77
2022/08/15 09:16:18;;;;;;;3.08;2.88;;;;;;;;;;5053590;28;20313;-76
2022/08/15 09:19:00;;;;;;;4.47;4.13;;;;;;;;;;5053383;28;20237;-77
2022/08/15 09:21:28;;;;;;;4.20;3.90;;;;;;;;;;5053605;28;20304;-76
2022/08/15 09:23:58;;;;;;;3.88;3.58;;;;;;;;;;5052728;28;20210;-77
2022/08/15 09:26:33;;;;;;;3.83;3.53;;;;;;;;;;5053121;28;20312;-76
2022/08/15 09:29:09;;;;;;;3.55;3.25;;;;;;;;;;5053012;28;20225;-76
2022/08/15 09:31:40;;;;;;;4.32;3.92;;;;;;;;;;5053163;28;20677;-79
2022/08/15 09:34:36;;;;;;;3.90;3.60;;;;;;;;;;5053317;28;20757;-78
2022/08/15 09:37:28;;;;;;;3.80;3.47;;;;;;;;;;5053379;28;20233;-79
2022/08/15 09:40:14;;;;;;;4.43;4.13;;;;;;;;;;5053801;28;20202;-78
2022/08/15 09:43:11;;;;;;;3.83;3.53;;;;;;;;;;5053316;28;20212;-78
2022/08/15 09:46:06;;;;;;;3.28;3.08;;;;;;;;;;5053255;28;20361;-78
2022/08/15 09:48:51;;;;;;;3.95;3.65;;;;;;;;;;5053365;28;20267;-79
2022/08/15 09:51:45;;;;;;;4.28;3.90;;;;;;;;;;5053259;28;20292;-78
2022/08/15 09:54:22;;;;;;;3.55;3.30;;;;;;;;;;5053188;28;20622;-78
2022/08/15 09:56:51;;;;;;;4.28;3.95;;;;;;;;;;5052766;28;20248;-78
2022/08/15 09:59:22;;;;;;;3.20;3.00;;;;;;;;;;5053835;28;20241;-78
2022/08/15 10:01:58;;;;;;;4.38;4.07;;;;;;;;;;5053246;28;20288;-78
2022/08/15 10:04:45;;;;;;;4.60;4.22;;;;;;;;;;5053030;28;20296;-78
2022/08/15 10:07:48;;;;;;;4.20;3.80;;;;;;;;;;5052649;28;20221;-78
2022/08/15 10:10:25;;;;;;;4.15;3.85;;;;;;;;;;5053140;28;20221;-78
2022/08/15 10:13:29;;;;;;;3.78;3.47;;;;;;;;;;5053410;28;20300;-78
2022/08/15 10:15:58;;;;;;;4.20;3.78;;;;;;;;;;5053185;28;20304;-78
2022/08/15 10:19:08;;;;;;;3.58;3.38;;;;;;;;;;5052980;28;20292;-78
2022/08/15 10:21:40;;;;;;;3.50;3.30;;;;;;;;;;5053579;28;20240;-78
2022/08/15 10:24:25;;;;;;;4.15;3.85;;;;;;;;;;5053300;28;20208;-78
2022/08/15 10:27:20;;;;;;;3.60;3.40;;;;;;;;;;5052944;28;20253;-78
2022/08/15 10:29:52;;;;;;;3.75;3.45;;;;;;;;;;5052848;28;20584;-78
2022/08/15 10:32:40;;;;;;;4.10;3.80;;;;;;;;;;5052670;28;20768;-78
2022/08/15 10:35:16;;;;;;;4.30;4.00;;;;;;;;;;5052088;28;20212;-78
2022/08/15 10:37:53;;;;;;;4.95;4.55;;;;;;;;;;5052684;28;20304;-78
2022/08/15 10:40:44;;;;;;;5.53;4.65;;;;;;;;;;5053050;28;20289;-79
2022/08/15 10:43:39;;;;;;;4.90;4.50;;;;;;;;;;5052946;28;20635;-78
2022/08/15 10:46:23;;;;;;;4.15;3.85;;;;;;;;;;5052641;28;20217;-78
2022/08/15 10:49:03;;;;;;;4.38;4.07;;;;;;;;;;5052741;28;20201;-78
2022/08/15 10:52:01;;;;;;;4.70;4.40;;;;;;;;;;5052549;28;20605;-78
2022/08/15 10:54:49;;;;;;;5.32;4.95;;;;;;;;;;5052571;28;20197;-78
2022/08/15 10:57:20;;;;;;;4.18;3.85;;;;;;;;;;5052670;28;20226;-78
2022/08/15 10:59:52;;;;;;;4.38;3.97;;;;;;;;;;5052545;28;20197;-78
2022/08/15 11:02:31;;;;;;;4.00;3.70;;;;;;;;;;5052046;28;20197;-78
2022/08/15 11:05:05;;;;;;;4.40;4.00;;;;;;;;;;5052514;28;20212;-78
2022/08/15 11:07:36;;;;;;;4.10;3.47;;;;;;;;;;5052365;28;20224;-79
2022/08/15 11:10:09;;;;;;;4.78;4.18;;;;;;;;;;5052263;28;20312;-79
2022/08/15 11:12:42;;;;;;;4.38;4.07;;;;;;;;;;5052457;28;20782;-78
2022/08/15 11:15:19;;;;;;;3.53;3.33;;;;;;;;;;5052258;28;20197;-78
2022/08/15 11:18:00;;;;;;;3.28;3.05;;;;;;;;;;5052208;28;20225;-79
2022/08/15 11:20:37;;;;;;;3.90;3.65;;;;;;;;;;5052403;28;20296;-80
2022/08/15 11:23:05;;;;;;;3.95;3.58;;;;;;;;;;5052608;28;20752;-78
2022/08/15 11:25:35;;;;;;;5.93;3.35;;;;;;;;;;5052102;28;20300;-78
2022/08/15 11:28:06;;;;;;;3.28;3.08;;;;;;;;;;5052047;28;20324;-79
2022/08/15 11:30:37;;;;;;;4.03;3.72;;;;;;;;;;5052197;28;20312;-79
2022/08/15 11:33:25;;;;;;;4.10;3.80;;;;;;;;;;5051936;28;20232;-79
2022/08/15 11:36:06;;;;;;;4.15;3.85;;;;;;;;;;5052135;28;20279;-79
2022/08/15 11:38:34;;;;;;;3.95;3.65;;;;;;;;;;5052053;28;20201;-79
2022/08/15 11:41:02;;;;;;;3.85;3.55;;;;;;;;;;5052565;28;20696;-79
2022/08/15 11:43:30;;;;;;;4.43;4.13;;;;;;;;;;5052359;28;20590;-79
2022/08/15 11:45:58;;;;;;;3.63;3.40;;;;;;;;;;5052802;28;20332;-79
2022/08/15 11:48:29;;;;;;;3.35;3.15;;;;;;;;;;5056314;28;20301;-79
2022/08/15 11:51:01;;;;;;;3.88;3.67;;;;;;;;;;5056341;28;20312;-79
2022/08/15 11:53:31;;;;;;;3.53;3.22;;;;;;;;;;5056586;28;20288;-78
2022/08/15 11:55:59;;;;;;;3.50;3.22;;;;;;;;;;5056119;28;20650;-79
2022/08/15 11:58:34;;;;;;;3.58;3.28;;;;;;;;;;5056051;28;21032;-79
2022/08/15 12:01:22;;;;;;;3.67;3.38;;;;;;;;;;5056046;28;20280;-79
2022/08/15 12:04:05;;;;;;;2.92;2.70;;;;;;;;;;5055634;28;20300;-79
2022/08/15 12:06:36;;;;;;;3.13;2.92;;;;;;;;;;5055015;28;20309;-79
2022/08/15 12:09:11;;;;;;;3.10;2.90;;;;;;;;;;5055936;28;20288;-79
2022/08/15 12:11:44;;;;;;;2.58;2.40;;;;;;;;;;5055168;28;20320;-78
2022/08/15 12:14:21;;;;;;;2.58;2.47;;;;;;;;;;5055387;28;20288;-78
2022/08/15 12:16:53;;;;;;;2.80;2.60;;;;;;;;;;5054884;28;20225;-76
2022/08/15 12:19:39;;;;;;;2.28;2.17;;;;;;;;;;5054922;28;20248;-79
2022/08/15 12:22:13;;;;;;;3.67;2.45;;;;;;;;;;5055277;28;20296;-79
2022/08/15 12:24:43;;;;;;;3.03;2.83;;;;;;;;;;5055273;28;20672;-78
2022/08/15 12:27:11;;;;;;;2.20;2.10;;;;;;;;;;5055128;28;20250;-79
2022/08/15 12:29:40;;;;;;;2.78;2.60;;;;;;;;;;5055108;28;20611;-79
2022/08/15 12:32:12;;;;;;;2.95;2.75;;;;;;;;;;5054770;28;20325;-78
2022/08/15 12:34:44;;;;;;;3.55;3.25;;;;;;;;;;5055106;28;20207;-79
2022/08/15 12:37:14;;;;;;;3.22;3.03;;;;;;;;;;5054792;28;20310;-79
2022/08/15 12:39:44;;;;;;;3.17;2.97;;;;;;;;;;5055371;28;20296;-78
2022/08/15 12:42:15;;;;;;;2.60;2.40;;;;;;;;;;5054604;28;20638;-78
2022/08/15 12:44:45;;;;;;;3.20;3.00;;;;;;;;;;5054786;28;20292;-79
2022/08/15 12:47:12;;;;;;;2.40;2.30;;;;;;;;;;5054254;28;20320;-78
2022/08/15 12:49:41;;;;;;;2.60;2.40;;;;;;;;;;5054225;28;20297;-78
2022/08/15 12:52:09;;;;;;;2.50;2.40;;;;;;;;;;5053984;28;20316;-78
2022/08/15 12:54:36;;;;;;;2.20;2.10;;;;;;;;;;5053914;28;20293;-78
2022/08/15 12:57:04;;;;;;;2.10;2.00;;;;;;;;;;5053384;28;20764;-78
2022/08/15 12:59:32;;;;;;;2.40;2.20;;;;;;;;;;5053932;28;20201;-78
2022/08/15 13:02:00;;;;;;;2.50;2.30;;;;;;;;;;5054061;28;20292;-78
2022/08/15 13:04:27;;;;;;;2.65;2.55;;;;;;;;;;5054070;28;20660;-78
2022/08/15 13:06:59;;;;;;;2.55;2.40;;;;;;;;;;5053578;28;20214;-78
2022/08/15 13:09:30;;;;;;;2.90;2.70;;;;;;;;;;5054268;28;20288;-77
2022/08/15 13:12:01;;;;;;;2.55;2.45;;;;;;;;;;5053668;28;20316;-76
2022/08/15 13:14:29;;;;;;;2.50;2.38;;;;;;;;;;5053457;28;20233;-78
2022/08/15 13:16:58;;;;;;;2.75;2.55;;;;;;;;;;5052770;28;20225;-77
2022/08/15 13:19:29;;;;;;;3.40;3.20;;;;;;;;;;5053733;28;20292;-77
2022/08/15 13:24:44;;;;;;;3.08;2.88;;;;;;;;;;5051558;28;20324;-77
2022/08/15 13:27:13;;;;;;;2.65;2.53;;;;;;;;;;5055067;28;20304;-77
2022/08/15 13:29:40;;;;;;;3.40;3.10;;;;;;;;;;5053107;28;20204;-77
2022/08/15 13:32:08;;;;;;;2.65;2.45;;;;;;;;;;5052527;28;20296;-78
2022/08/15 13:34:36;;;;;;;3.08;2.88;;;;;;;;;;5052370;28;20292;-77
2022/08/15 13:37:08;;;;;;;3.78;3.58;;;;;;;;;;5052126;28;20237;-78
2022/08/15 13:39:39;;;;;;;2.92;2.72;;;;;;;;;;5052714;28;20208;-77
2022/08/15 13:42:07;;;;;;;2.75;2.55;;;;;;;;;;5052103;28;20259;-78
2022/08/15 13:44:36;;;;;;;3.17;2.97;;;;;;;;;;5069622;28;20208;-78
2022/08/15 13:47:06;;;;;;;2.95;2.75;;;;;;;;;;5066197;28;20283;-77
2022/08/15 13:49:39;;;;;;;3.03;2.83;;;;;;;;;;5052603;28;20288;-79
2022/08/15 13:52:08;;;;;;;2.85;2.65;;;;;;;;;;5051495;28;20217;-78
2022/08/15 13:54:36;;;;;;;2.72;2.53;;;;;;;;;;5051747;28;20198;-77
2022/08/15 13:57:03;;;;;;;3.20;2.90;;;;;;;;;;5052022;28;20324;-77
2022/08/15 13:59:32;;;;;;;2.60;2.47;;;;;;;;;;5051812;28;20289;-77
2022/08/15 14:02:01;;;;;;;3.60;3.40;;;;;;;;;;5052194;28;20666;-78
2022/08/15 14:04:35;;;;;;;3.28;3.08;;;;;;;;;;5052311;28;20232;-77
2022/08/15 14:07:04;;;;;;;3.33;3.03;;;;;;;;;;5052480;28;20226;-78
2022/08/15 14:09:35;;;;;;;3.17;2.97;;;;;;;;;;5051631;28;20670;-77
2022/08/15 14:12:03;;;;;;;3.33;3.13;;;;;;;;;;5051689;28;20224;-77
2022/08/15 14:14:32;;;;;;;3.60;3.40;;;;;;;;;;5051139;28;20228;-77
2022/08/15 14:17:00;;;;;;;3.38;3.17;;;;;;;;;;5050926;28;20312;-77
2022/08/15 14:19:29;;;;;;;4.18;3.88;;;;;;;;;;5055448;28;20200;-79
2022/08/15 14:21:57;;;;;;;3.30;3.10;;;;;;;;;;5071852;28;20230;-77
2022/08/15 14:24:27;;;;;;;3.00;2.80;;;;;;;;;;5071869;28;20243;-78
2022/08/15 14:26:56;;;;;;;3.13;2.92;;;;;;;;;;5056667;28;20316;-77
2022/08/15 14:29:28;;;;;;;3.30;3.10;;;;;;;;;;5051453;28;20202;-78
2022/08/15 14:31:56;;;;;;;3.22;3.03;;;;;;;;;;5051857;28;20312;-77
2022/08/15 14:34:24;;;;;;;2.63;2.47;;;;;;;;;;5051601;28;20201;-78
2022/08/15 14:36:54;;;;;;;4.38;3.53;;;;;;;;;;5051388;28;20232;-77
2022/08/15 14:39:22;;;;;;;3.00;2.80;;;;;;;;;;5051271;28;20193;-77
2022/08/15 14:41:50;;;;;;;2.45;2.35;;;;;;;;;;5051518;28;20289;-77
2022/08/15 14:44:20;;;;;;;3.53;3.28;;;;;;;;;;5051729;28;20288;-77
2022/08/15 14:46:48;;;;;;;3.10;2.90;;;;;;;;;;5051350;28;20692;-77
2022/08/15 14:49:16;;;;;;;3.05;2.85;;;;;;;;;;5050667;28;20292;-78
2022/08/15 14:51:45;;;;;;;2.58;2.47;;;;;;;;;;5051912;28;20309;-78
2022/08/15 14:54:16;;;;;;;2.70;2.50;;;;;;;;;;5051434;28;20288;-77
2022/08/15 14:56:44;;;;;;;3.10;2.90;;;;;;;;;;5051442;28;20218;-77
2022/08/15 14:59:14;;;;;;;3.42;3.22;;;;;;;;;;5052150;28;20201;-78
2022/08/15 15:01:44;;;;;;;4.15;3.83;;;;;;;;;;5052168;28;20204;-77
2022/08/15 15:04:14;;;;;;;3.60;3.30;;;;;;;;;;5051218;28;20296;-77
2022/08/15 15:06:44;;;;;;;3.17;2.97;;;;;;;;;;5051267;28;20222;-77
2022/08/15 15:09:14;;;;;;;3.40;3.10;;;;;;;;;;5052245;28;20296;-77
2022/08/15 15:11:45;;;;;;;3.17;2.97;;;;;;;;;;5052297;28;20205;-78
2022/08/15 15:14:13;;;;;;;3.50;3.30;;;;;;;;;;5052496;28;20217;-78
2022/08/15 15:16:42;;;;;;;3.40;3.20;;;;;;;;;;5060066;22;20213;-83
2022/08/15 15:19:11;;;;;;;2.88;2.67;;;;;;;;;;5066238;28;20200;-84
2022/08/15 15:21:39;;;;;;;3.38;3.13;;;;;;;;;;5061779;28;20236;-84